Monday, June 25, 2018, 7:33 PM GMT
Back to Local

CYHU, Saint Hubert Airport

Location: , , Canada Lat: 45.517
Local Time: 7:33 PM GMT (19:33 GMT) Lon: -73.417
Time Zone: GMT Elev: 88 ft

Show me the last for .
Show Decoded

2018-06-25 19:00 METAR CYHU 251900Z AUTO 34012G18KT 9SM CLR 21/05 A3009 RMK SLP190 DENSITY ALT
                 600FT =
2018-06-25 18:00 METAR CYHU 251800Z AUTO 35016KT 290V010 9SM CLR 21/05 A3008 RMK SLP188 DENSITY
                 ALT 500FT =
2018-06-25 17:00 METAR CYHU 251700Z AUTO 34012G21KT 9SM CLR 20/05 A3007 RMK SLP185 DENSITY ALT
                 400FT =
2018-06-25 16:00 METAR CYHU 251600Z AUTO 34015G22KT 9SM CLR 19/06 A3007 RMK SLP186 DENSITY ALT
                 400FT =
2018-06-25 15:00 METAR CYHU 251500Z AUTO 36016G21KT 9SM CLR 18/04 A3007 RMK SLP183 DENSITY ALT
                 300FT =
2018-06-25 14:00 METAR CYHU 251400Z AUTO 34011G18KT 9SM CLR 17/07 A3005 RMK SLP179 DENSITY ALT
                 200FT =
2018-06-25 13:00 METAR CYHU 251300Z AUTO 35007KT 9SM FEW085 16/08 A3004 RMK SLP175 DENSITY ALT
                 100FT =
2018-06-25 12:00 METAR CYHU 251200Z AUTO 34008KT 9SM SCT080 BKN091 14/08 A3002 RMK SLP169 =
2018-06-25 11:00 METAR CYHU 251100Z AUTO 36008KT 9SM FEW080 SCT090 13/10 A3000 RMK SLP161 =
2018-06-25 10:13 METAR CYHU 251013Z AUTO 01006KT 6SM BR SCT004 SCT080 13/12 A2999 RMK SLP156 =
2018-06-25 10:12 METAR CYHU 251012Z AUTO 01007KT 5SM BR SCT004 13/12 A2999 RMK SLP156 =
2018-06-25 10:06 METAR CYHU 251006Z AUTO 02007KT 3SM BR BKN004 13/12 A2998 RMK SLP155 =
2018-06-25 10:00 METAR CYHU 251000Z AUTO 01007KT 2 1/2SM BR OVC004 13/13 A2998 RMK SLP155 =
2018-06-25 09:56 METAR CYHU 250956Z AUTO 01007KT 2 1/2SM BR OVC004 13/13 A2998 RMK SLP155 =
2018-06-25 09:38 METAR CYHU 250938Z AUTO 01008KT 5SM BR BKN004 OVC008 13/12 A2997 RMK SLP150 =
2018-06-25 09:19 METAR CYHU 250919Z AUTO 34008KT 9SM BKN008 BKN085 12/11 A2996 RMK SLP147 =
2018-06-25 09:00 METAR CYHU 250900Z AUTO 33007KT 9SM SCT085 11/10 A2995 RMK SLP143 =
2018-06-25 08:00 METAR CYHU 250800Z AUTO 32007KT 9SM CLR 13/11 A2993 RMK SLP137 =
2018-06-25 07:00 METAR CYHU 250700Z AUTO 29005KT 9SM CLR 13/12 A2992 RMK SLP134 =
2018-06-25 06:00 METAR CYHU 250600Z AUTO 29005KT 9SM OVC140 14/13 A2992 RMK SLP135 =
2018-06-25 05:00 METAR CYHU 250500Z AUTO 30006KT 9SM OVC090 14/13 A2993 RMK SLP136 =
2018-06-25 04:13 METAR CYHU 250413Z AUTO 31004KT 9SM BKN070 OVC087 14/13 A2991 RMK SLP132 =
2018-06-25 04:00 METAR CYHU 250400Z AUTO 32005KT 9SM -RA BKN070 OVC089 14/13 A2992 RMK SLP133 =
2018-06-25 03:00 METAR CYHU 250300Z AUTO 26003KT 9SM -RA BKN050 OVC070 14/13 A2991 RMK SLP132 =
2018-06-25 02:00 METAR CYHU 250200Z AUTO 34006KT 9SM -RA BKN040 OVC055 14/13 A2992 RMK SLP134 =
2018-06-25 01:00 METAR CYHU 250100Z AUTO 36006KT 9SM -RA OVC035 15/14 A2990 RMK SLP126 =
2018-06-25 00:00 METAR CYHU 250000Z AUTO 01009KT 9SM -RA BKN029 OVC060 15/13 A2989 RMK SLP124 =
2018-06-24 23:00 METAR CYHU 242300Z AUTO 03008KT 9SM -RA BKN055 OVC073 16/15 A2987 RMK SLP117
                 DENSITY ALT 200FT =
2018-06-24 22:04 METAR CYHU 242204Z AUTO 02006KT 7SM -RA FEW029 SCT034 OVC055 15/14 A2987 RMK
                 SLP116 DENSITY ALT 200FT =
2018-06-24 22:00 METAR CYHU 242200Z AUTO 03007G15KT 4SM -RA BR FEW029 BKN034 OVC050 15/14 A2987
                 RMK SLP116 DENSITY ALT 200FT =
2018-06-24 21:57 METAR CYHU 242157Z AUTO 03010G15KT 3SM -RA BR FEW029 BKN034 OVC050 15/14 A2987
                 RMK SLP116 DENSITY ALT 100FT =
2018-06-24 21:55 METAR CYHU 242155Z AUTO 03010G15KT 2 1/2SM RA BR SCT029 BKN034 OVC050 15/14
                 A2987 RMK SLP116 DENSITY ALT 100FT =
2018-06-24 21:46 METAR CYHU 242146Z AUTO 02009KT 5SM -RA BR SCT029 BKN034 OVC050 15/14 A2987 RMK
                 SLP116 DENSITY ALT 200FT =
2018-06-24 21:36 METAR CYHU 242136Z AUTO 01007KT 6SM -RA BR SCT034 OVC049 15/14 A2986 RMK SLP115
                 DENSITY ALT 200FT =
2018-06-24 21:00 METAR CYHU 242100Z AUTO 03009G15KT 4SM -RA BR SCT029 BKN035 BKN042 OVC049 16/15
                 A2986 RMK SLP113 DENSITY ALT 200FT =
2018-06-24 20:11 METAR CYHU 242011Z AUTO 03012KT 4SM RA BR SCT032 BKN042 OVC060 16/14 A2984 RMK
                 SLP107 DENSITY ALT 300FT =
2018-06-24 20:06 METAR CYHU 242006Z AUTO 03009G17KT 4SM +RA BR SCT030 BKN036 OVC060 17/15 A2984
                 RMK SLP107 DENSITY ALT 300FT =
2018-06-24 20:00 METAR CYHU 242000Z AUTO 02013KT 4SM -RA SCT030 OVC036 17/14 A2984 RMK PRESRR
                 SLP107 DENSITY ALT 400FT =
2018-06-24 19:49 METAR CYHU 241949Z AUTO 02012G18KT 4SM RA BKN035 OVC050 17/14 A2983 RMK SLP103
                 DENSITY ALT 400FT =
2018-06-24 19:44 METAR CYHU 241944Z AUTO 02013G20KT 5SM +RA BR BKN037 OVC050 17/15 A2983 RMK
                 PRESRR SLP102 DENSITY ALT 400FT =
2018-06-24 19:42 METAR CYHU 241942Z AUTO 02014G20KT 6SM +RA BR BKN037 OVC050 17/15 A2982 RMK
                 SLP101 DENSITY ALT 400FT =

Support USWX by starting your Amazon purchase here.